createdAt,value
2023-08-11T00:00:15.178Z,99987.56
2023-08-11T00:02:43.618Z,99985.34
2023-08-11T00:05:12.804Z,99990.13
2023-08-11T00:07:40.811Z,99989.13
2023-08-11T00:10:09.561Z,99983.94
2023-08-11T00:12:37.886Z,99979.59
2023-08-11T00:15:08.167Z,99984.94
2023-08-11T00:17:36.611Z,99981.03
2023-08-11T00:20:10.101Z,99980.03
2023-08-11T00:22:39.213Z,99975.53
2023-08-11T00:25:07.883Z,99974.56
2023-08-11T00:27:36.339Z,99971.34
2023-08-11T00:30:06.535Z,99974.59
2023-08-11T00:32:34.794Z,99975.59
2023-08-11T00:35:04.021Z,99977.56
2023-08-11T00:37:32.024Z,99972.53
2023-08-11T00:40:00.627Z,99969.16
2023-08-11T00:42:28.988Z,99977.16
2023-08-11T00:44:59.549Z,99971.47
2023-08-11T00:47:31.373Z,99975.38
2023-08-11T00:49:59.976Z,99972.88
2023-08-11T00:52:28.682Z,99963.16
2023-08-11T00:54:59.224Z,99967.50
2023-08-11T00:57:27.559Z,99961.88
2023-08-11T00:59:58.078Z,99964.13
2023-08-11T01:02:27.327Z,99964.13
2023-08-11T01:04:56.032Z,99956.97
2023-08-11T01:07:39.046Z,99955.56
2023-08-11T01:10:35.079Z,99953.47
2023-08-11T01:13:13.134Z,99954.81
2023-08-11T01:15:45.036Z,99965.38
2023-08-11T01:18:14.306Z,99956.66
2023-08-11T01:20:43.294Z,99964.53
2023-08-11T01:23:23.170Z,99958.66
2023-08-11T01:25:53.025Z,99954.31
2023-08-11T01:28:23.014Z,99954.31
2023-08-11T01:30:51.114Z,99966.09
2023-08-11T01:33:19.282Z,99963.84
2023-08-11T01:35:47.579Z,99966.09
2023-08-11T01:38:15.688Z,99963.56
2023-08-11T01:40:43.819Z,99956.88
2023-08-11T01:43:18.341Z,99955.47
2023-08-11T01:45:49.601Z,99956.72
2023-08-11T01:48:21.150Z,99953.34
2023-08-11T01:50:49.268Z,99952.94
2023-08-11T01:53:17.357Z,99961.66
2023-08-11T01:55:46.530Z,99959.16
2023-08-11T01:58:14.773Z,99952.53
2023-08-11T02:00:43.408Z,99958.28
2023-08-11T02:03:15.868Z,99955.75
2023-08-11T02:05:44.140Z,99951.28
2023-08-11T02:08:12.522Z,99949.03
2023-08-11T02:10:40.488Z,99947.38
2023-08-11T02:13:08.808Z,99954.66
2023-08-11T02:15:36.824Z,99945.94
2023-08-11T02:18:05.534Z,99952.00
2023-08-11T02:20:34.458Z,99947.22
2023-08-11T02:23:02.866Z,99952.69
2023-08-11T02:25:30.923Z,99952.81
2023-08-11T02:27:59.100Z,99953.66
2023-08-11T02:30:30.807Z,99953.66
2023-08-11T02:33:01.193Z,62174.59
2023-08-11T02:35:29.414Z,62174.59
2023-08-11T02:37:57.412Z,62174.59
2023-08-11T02:40:31.838Z,62174.59
2023-08-11T02:42:59.969Z,62174.59
2023-08-11T02:45:27.963Z,62174.59
2023-08-11T02:47:57.630Z,62174.59
2023-08-11T02:50:26.439Z,99953.66
2023-08-11T02:52:55.098Z,99961.75
2023-08-11T02:55:23.669Z,99953.91
2023-08-11T02:57:52.453Z,99964.41
2023-08-11T03:00:20.628Z,99959.31
2023-08-11T03:02:49.072Z,99966.56
2023-08-11T03:05:18.485Z,99961.38
2023-08-11T03:07:51.150Z,99965.25
2023-08-11T03:10:20.032Z,99967.19
2023-08-11T03:12:48.915Z,99975.31
2023-08-11T03:15:18.006Z,99973.34
2023-08-11T03:17:46.770Z,99972.59
2023-08-11T03:20:16.434Z,99970.13
2023-08-11T03:22:47.000Z,99975.56
2023-08-11T03:25:19.123Z,99970.84
2023-08-11T03:27:47.438Z,99969.28
2023-08-11T03:30:21.999Z,62174.59
2023-08-11T03:32:54.646Z,62174.59
2023-08-11T03:35:35.608Z,62174.59
2023-08-11T03:38:04.573Z,62174.59
2023-08-11T03:40:33.745Z,62174.59
2023-08-11T03:43:02.055Z,62174.59
2023-08-11T03:45:31.463Z,62174.59
2023-08-11T03:47:59.698Z,62174.59
2023-08-11T03:50:27.910Z,62174.59
2023-08-11T03:52:55.981Z,62174.59
2023-08-11T03:55:24.917Z,62174.59
2023-08-11T03:57:53.149Z,99984.72
2023-08-11T04:00:25.868Z,99976.09
2023-08-11T04:03:05.253Z,99974.28
2023-08-11T04:05:33.560Z,99976.81
2023-08-11T04:08:01.631Z,99973.16
2023-08-11T04:10:29.783Z,99982.69
2023-08-11T04:12:58.093Z,99977.59
2023-08-11T04:15:26.373Z,99978.09
2023-08-11T04:17:54.847Z,99970.81
2023-08-11T04:20:24.747Z,99976.72
2023-08-11T04:22:53.020Z,99971.81
2023-08-11T04:25:22.833Z,99978.81
2023-08-11T04:27:51.594Z,99982.38
2023-08-11T04:30:20.338Z,99977.75
2023-08-11T04:32:52.543Z,99980.97
2023-08-11T04:35:21.086Z,99974.00
2023-08-11T04:37:51.370Z,99979.03
2023-08-11T04:40:21.179Z,62174.59
2023-08-11T04:42:51.656Z,99982.81
2023-08-11T04:45:25.298Z,99993.22
2023-08-11T04:47:53.578Z,62174.59
2023-08-11T04:50:23.102Z,99985.94
2023-08-11T04:52:56.836Z,62174.59
2023-08-11T04:55:25.070Z,99998.66
2023-08-11T04:57:53.214Z,99998.06
2023-08-11T05:00:22.131Z,99998.81
2023-08-11T05:02:52.783Z,100000.78
2023-08-11T05:05:21.193Z,99997.78
2023-08-11T05:07:49.592Z,99995.88
2023-08-11T05:10:17.771Z,99997.84
2023-08-11T05:12:47.189Z,99984.81
2023-08-11T05:15:15.527Z,99989.31
2023-08-11T05:17:43.900Z,62174.59
2023-08-11T05:20:13.042Z,62174.59
2023-08-11T05:22:41.823Z,99989.31
2023-08-11T05:25:10.589Z,99970.13
2023-08-11T05:27:38.734Z,99971.47
2023-08-11T05:30:09.853Z,99963.59
2023-08-11T05:32:37.943Z,99967.91
2023-08-11T05:35:09.545Z,99959.16
2023-08-11T05:37:39.123Z,62174.59
2023-08-11T05:40:11.736Z,62174.59
2023-08-11T05:42:40.422Z,62174.59
2023-08-11T05:45:09.300Z,62174.59
2023-08-11T05:47:37.672Z,62174.59
2023-08-11T05:50:06.988Z,62174.59
2023-08-11T05:52:35.349Z,62174.59
2023-08-11T05:55:03.547Z,62174.59
2023-08-11T05:57:32.642Z,62174.59
2023-08-11T06:00:00.972Z,62174.59
2023-08-11T06:02:29.526Z,62174.59
2023-08-11T06:04:58.479Z,99959.16
2023-08-11T06:07:26.725Z,99931.59
2023-08-11T06:09:56.312Z,99928.16
2023-08-11T06:12:25.868Z,62174.59
2023-08-11T06:14:54.233Z,99928.16
2023-08-11T06:17:22.516Z,99926.88
2023-08-11T06:19:50.870Z,99930.81
2023-08-11T06:22:19.668Z,99921.72
2023-08-11T06:24:47.994Z,99925.22
2023-08-11T06:27:16.688Z,99915.66
2023-08-11T06:29:45.325Z,99915.66
2023-08-11T06:32:13.454Z,99922.81
2023-08-11T06:34:41.993Z,99922.47
2023-08-11T06:37:10.515Z,99912.13
2023-08-11T06:39:38.758Z,99912.13
2023-08-11T06:42:06.998Z,99892.13
2023-08-11T06:45:01.908Z,99889.66
2023-08-11T06:47:34.783Z,99888.97
2023-08-11T06:50:04.787Z,99870.19
2023-08-11T06:52:33.136Z,99878.22
2023-08-11T06:55:01.324Z,99878.91
2023-08-11T06:57:29.580Z,99878.41
2023-08-11T06:59:58.947Z,99877.66
2023-08-11T07:02:27.601Z,99869.84
2023-08-11T07:04:56.572Z,99894.50
2023-08-11T07:07:25.058Z,99900.28
2023-08-11T07:09:53.208Z,99889.50
2023-08-11T07:12:21.803Z,99896.59
2023-08-11T07:14:51.494Z,99898.63
2023-08-11T07:17:19.778Z,99900.59
2023-08-11T07:19:48.157Z,99886.69
2023-08-11T07:22:18.597Z,99894.31
2023-08-11T07:24:46.975Z,99871.31
2023-08-11T07:27:17.614Z,99864.63
2023-08-11T07:29:48.213Z,99882.75
2023-08-11T07:32:21.221Z,99884.66
2023-08-11T07:34:52.380Z,99918.22
2023-08-11T07:37:20.960Z,99918.94
2023-08-11T07:39:49.246Z,99902.66
2023-08-11T07:42:18.592Z,99883.94
2023-08-11T07:44:46.754Z,99899.34
2023-08-11T07:47:15.385Z,99913.44
2023-08-11T07:49:44.122Z,99881.94
2023-08-11T07:52:12.578Z,99912.22
2023-08-11T07:54:40.965Z,99877.81
2023-08-11T07:57:10.412Z,99892.59
2023-08-11T07:59:39.181Z,99914.53
2023-08-11T08:02:14.192Z,99968.38
2023-08-11T08:04:44.180Z,99934.91
2023-08-11T08:07:12.630Z,99942.72
2023-08-11T08:09:42.061Z,99928.63
2023-08-11T08:12:10.964Z,99927.53
2023-08-11T08:14:39.331Z,99891.38
2023-08-11T08:17:08.323Z,99910.47
2023-08-11T08:19:37.076Z,99912.03
2023-08-11T08:22:05.726Z,62174.59
2023-08-11T08:24:34.471Z,62174.59
2023-08-11T08:27:02.931Z,62174.59
2023-08-11T08:29:31.312Z,62174.59
2023-08-11T08:31:59.618Z,62174.59
2023-08-11T08:34:27.891Z,62174.59
2023-08-11T08:36:56.178Z,62174.59
2023-08-11T08:39:25.561Z,99924.75
2023-08-11T08:41:55.852Z,99918.72
2023-08-11T08:44:25.189Z,99922.31
2023-08-11T08:46:57.352Z,99922.59
2023-08-11T08:49:28.039Z,99935.75
2023-08-11T08:51:58.787Z,99923.31
2023-08-11T08:54:27.595Z,99937.47
2023-08-11T08:56:57.674Z,99923.09
2023-08-11T08:59:26.234Z,99930.22
2023-08-11T09:01:55.003Z,99935.75
2023-08-11T09:04:24.863Z,99906.47
2023-08-11T09:06:57.096Z,99906.09
2023-08-11T09:09:26.179Z,99916.72
2023-08-11T09:11:58.373Z,99941.19
2023-08-11T09:14:26.895Z,99926.34
2023-08-11T09:16:55.486Z,99947.22
2023-08-11T09:19:25.062Z,99941.28
2023-08-11T09:21:54.759Z,99928.47
2023-08-11T09:24:24.920Z,99913.72
2023-08-11T09:26:54.024Z,99915.28
2023-08-11T09:29:22.482Z,99946.66
2023-08-11T09:31:56.336Z,99955.88
2023-08-11T09:34:25.018Z,99947.50
2023-08-11T09:36:54.366Z,99951.34
2023-08-11T09:39:22.645Z,99954.31
2023-08-11T09:41:51.512Z,99985.13
2023-08-11T09:44:25.506Z,99966.72
2023-08-11T09:46:54.810Z,99967.88
2023-08-11T09:49:23.115Z,99932.81
2023-08-11T09:51:52.770Z,99919.41
2023-08-11T09:54:22.708Z,99935.63
2023-08-11T09:56:51.365Z,99926.19
2023-08-11T09:59:24.380Z,99921.91
2023-08-11T10:01:56.231Z,99943.88
2023-08-11T10:04:46.416Z,99947.97
2023-08-11T10:07:17.517Z,99928.34
2023-08-11T10:09:48.292Z,99950.13
2023-08-11T10:12:17.170Z,99958.56
2023-08-11T10:14:45.896Z,99940.56
2023-08-11T10:17:15.049Z,99959.69
2023-08-11T10:19:44.245Z,99929.38
2023-08-11T10:22:13.477Z,99939.94
2023-08-11T10:24:43.600Z,99945.28
2023-08-11T10:27:12.430Z,99950.59
2023-08-11T10:29:45.753Z,99956.84
2023-08-11T10:32:14.235Z,99911.09
2023-08-11T10:34:42.804Z,99921.25
2023-08-11T10:37:11.474Z,99947.22
2023-08-11T10:39:41.410Z,99909.53
2023-08-11T10:42:14.888Z,99884.03
2023-08-11T10:44:46.111Z,99900.22
2023-08-11T10:47:14.329Z,99901.06
2023-08-11T10:49:43.978Z,99909.09
2023-08-11T10:52:13.957Z,99868.19
2023-08-11T10:54:52.593Z,99900.22
2023-08-11T10:57:22.324Z,99899.44
2023-08-11T10:59:50.905Z,99892.06
2023-08-11T11:02:22.072Z,99901.47
2023-08-11T11:04:55.691Z,99901.75
2023-08-11T11:07:25.025Z,99876.84
2023-08-11T11:09:54.075Z,99914.25
2023-08-11T11:12:22.296Z,99914.34
2023-08-11T11:14:50.884Z,99912.25
2023-08-11T11:17:19.284Z,99928.31
2023-08-11T11:19:49.192Z,99926.75
2023-08-11T11:22:19.296Z,99934.44
2023-08-11T11:24:50.460Z,99932.16
2023-08-11T11:27:19.701Z,99943.88
2023-08-11T11:29:48.226Z,99945.06
2023-08-11T11:32:19.257Z,99943.91
2023-08-11T11:34:48.493Z,99922.69
2023-08-11T11:37:18.730Z,99910.50
2023-08-11T11:39:47.416Z,99876.41
2023-08-11T11:42:16.169Z,99888.06
2023-08-11T11:44:46.093Z,99903.00
2023-08-11T11:47:14.851Z,99895.50
2023-08-11T11:49:43.320Z,99884.72
2023-08-11T11:52:11.801Z,99893.75
2023-08-11T11:54:40.530Z,99891.78
2023-08-11T11:57:11.574Z,99908.31
2023-08-11T11:59:43.215Z,99906.25
2023-08-11T12:02:14.267Z,99907.44
2023-08-11T12:04:47.315Z,99880.53
2023-08-11T12:07:35.511Z,99910.34
2023-08-11T12:10:07.826Z,99917.31
2023-08-11T12:12:36.570Z,99911.03
2023-08-11T12:15:08.191Z,99912.53
2023-08-11T12:17:37.916Z,99902.31
2023-08-11T12:20:11.669Z,99882.28
2023-08-11T12:22:40.685Z,99870.22
2023-08-11T12:25:12.296Z,99875.25
2023-08-11T12:27:42.869Z,99871.25
2023-08-11T12:30:12.272Z,99864.34
2023-08-11T12:32:40.842Z,99841.06
2023-08-11T12:35:12.819Z,99862.91
2023-08-11T12:37:41.505Z,99850.28
2023-08-11T12:40:11.110Z,99856.50
2023-08-11T12:42:39.563Z,99843.88
2023-08-11T12:45:09.544Z,99865.44
2023-08-11T12:47:37.793Z,99874.91
2023-08-11T12:50:06.857Z,99893.44
2023-08-11T12:52:35.194Z,99886.50
2023-08-11T12:55:04.425Z,99902.16
2023-08-11T12:57:33.191Z,99895.34
2023-08-11T13:00:01.286Z,99905.59
2023-08-11T13:02:29.670Z,99907.28
2023-08-11T13:04:58.259Z,99912.50
2023-08-11T13:07:27.952Z,99926.75
2023-08-11T13:09:56.121Z,99924.50
2023-08-11T13:12:24.534Z,99922.25
2023-08-11T13:14:53.778Z,99926.13
2023-08-11T13:17:23.753Z,99907.28
2023-08-11T13:19:53.396Z,99915.34
2023-08-11T13:22:21.553Z,99890.56
2023-08-11T13:24:49.960Z,99903.47
2023-08-11T13:27:18.166Z,99892.06
2023-08-11T13:29:46.374Z,99879.16
2023-08-11T13:32:14.692Z,99868.13
2023-08-11T13:34:43.157Z,99883.53
2023-08-11T13:37:11.504Z,99870.44
2023-08-11T13:39:39.866Z,99863.22
2023-08-11T13:42:11.654Z,99828.59
2023-08-11T13:44:40.107Z,99849.72
2023-08-11T13:47:08.461Z,99837.91
2023-08-11T13:49:37.345Z,99805.69
2023-08-11T13:52:06.082Z,99800.31
2023-08-11T13:54:34.449Z,99803.94
2023-08-11T13:57:02.992Z,99806.66
2023-08-11T13:59:31.349Z,99800.97
2023-08-11T14:01:59.741Z,99791.19
2023-08-11T14:04:28.230Z,99780.97
2023-08-11T14:07:06.166Z,99808.06
2023-08-11T14:09:42.756Z,99828.19
2023-08-11T14:12:11.634Z,99838.03
2023-08-11T14:14:40.216Z,99853.06
2023-08-11T14:17:08.417Z,99816.53
2023-08-11T14:19:37.231Z,99808.16
2023-08-11T14:22:05.324Z,99830.97
2023-08-11T14:24:33.809Z,99819.75
2023-08-11T14:27:02.077Z,99816.13
2023-08-11T14:29:30.135Z,99820.53
2023-08-11T14:32:06.574Z,99841.56
2023-08-11T14:34:46.657Z,99852.78
2023-08-11T14:37:17.311Z,99828.44
2023-08-11T14:39:46.809Z,99826.28
2023-08-11T14:42:15.442Z,99794.06
2023-08-11T14:44:43.863Z,99781.03
2023-08-11T14:47:15.119Z,99804.63
2023-08-11T14:49:45.433Z,99795.84
2023-08-11T14:52:14.771Z,99786.59
2023-08-11T14:54:43.281Z,99785.34
2023-08-11T14:57:14.480Z,99751.72
2023-08-11T14:59:42.976Z,99766.75
2023-08-11T15:02:11.904Z,99779.09
2023-08-11T15:04:40.608Z,99753.09
2023-08-11T15:07:08.816Z,99729.41
2023-08-11T15:09:36.896Z,99748.47
2023-08-11T15:12:05.793Z,99745.66
2023-08-11T15:14:33.920Z,99771.66
2023-08-11T15:17:02.150Z,99770.81
2023-08-11T15:19:34.049Z,99755.75
2023-08-11T15:22:02.136Z,99782.53
2023-08-11T15:24:30.340Z,99791.41
2023-08-11T15:26:58.558Z,99808.91
2023-08-11T15:29:26.723Z,99741.84
2023-08-11T15:31:55.106Z,99765.25
2023-08-11T15:34:24.145Z,99782.22
2023-08-11T15:36:52.368Z,99778.13
2023-08-11T15:39:21.204Z,99774.66
2023-08-11T15:41:49.536Z,99819.44
2023-08-11T15:44:19.141Z,99765.44
2023-08-11T15:46:49.761Z,99807.59
2023-08-11T15:49:18.288Z,99775.13
2023-08-11T15:51:46.562Z,99812.81
2023-08-11T15:54:14.988Z,99782.03
2023-08-11T15:56:43.323Z,99795.47
2023-08-11T15:59:11.553Z,99820.81
2023-08-11T16:01:40.587Z,99794.63
2023-08-11T16:04:09.466Z,99809.66
2023-08-11T16:06:37.968Z,99806.19
2023-08-11T16:09:08.011Z,99801.66
2023-08-11T16:11:36.611Z,99796.22
2023-08-11T16:14:05.344Z,99784.34
2023-08-11T16:16:33.594Z,99808.53
2023-08-11T16:19:01.684Z,99805.75
2023-08-11T16:21:29.929Z,99825.31
2023-08-11T16:23:58.067Z,99807.13
2023-08-11T16:26:26.186Z,99790.75
2023-08-11T16:28:54.344Z,99825.53
2023-08-11T16:31:22.761Z,99792.72
2023-08-11T16:33:50.831Z,99826.88
2023-08-11T16:36:21.275Z,99822.03
2023-08-11T16:38:50.150Z,99802.28
2023-08-11T16:41:18.553Z,99831.59
2023-08-11T16:43:47.368Z,99824.69
2023-08-11T16:46:17.446Z,99833.84
2023-08-11T16:48:45.850Z,99822.38
2023-08-11T16:51:15.433Z,99822.22
2023-08-11T16:53:43.720Z,99806.34
2023-08-11T16:56:11.866Z,99826.00
2023-08-11T16:58:40.106Z,99817.06
2023-08-11T17:01:08.132Z,99819.47
2023-08-11T17:03:36.877Z,99830.25
2023-08-11T17:06:05.509Z,99832.63
2023-08-11T17:08:35.295Z,99845.09
2023-08-11T17:11:04.611Z,99842.41
2023-08-11T17:13:32.885Z,99844.03
2023-08-11T17:16:01.272Z,99859.47
2023-08-11T17:18:29.702Z,99866.47
2023-08-11T17:21:00.371Z,99859.41
2023-08-11T17:23:30.534Z,99876.44
2023-08-11T17:25:59.642Z,99884.53
2023-08-11T17:28:27.998Z,99878.63
2023-08-11T17:30:59.611Z,99902.91
2023-08-11T17:33:29.037Z,99909.34
2023-08-11T17:35:57.659Z,99911.69
2023-08-11T17:38:26.097Z,99907.94
2023-08-11T17:40:54.164Z,99918.19
2023-08-11T17:43:22.713Z,99920.47
2023-08-11T17:45:51.972Z,99921.25
2023-08-11T17:48:20.279Z,99930.81
2023-08-11T17:50:48.541Z,99938.28
2023-08-11T17:53:16.816Z,99939.25
2023-08-11T17:55:45.125Z,99945.63
2023-08-11T17:58:13.312Z,99939.97
2023-08-11T18:00:43.528Z,99954.41
2023-08-11T18:03:12.404Z,99954.50
2023-08-11T18:05:41.572Z,99958.78
2023-08-11T18:08:10.476Z,62174.59
2023-08-11T18:10:39.007Z,83268.19
2023-08-11T18:13:07.243Z,62174.59
2023-08-11T18:15:35.624Z,62174.59
2023-08-11T18:18:04.359Z,62174.59
2023-08-11T18:20:33.542Z,62174.59
2023-08-11T18:23:02.477Z,62174.59
2023-08-11T18:25:30.622Z,62174.59
2023-08-11T18:27:58.960Z,62174.59
2023-08-11T18:30:27.291Z,62174.59
2023-08-11T18:32:55.604Z,62174.59
2023-08-11T18:35:23.978Z,62174.59
2023-08-11T18:37:52.614Z,99967.63
2023-08-11T18:40:21.909Z,100043.47
2023-08-11T18:42:50.259Z,100039.00
2023-08-11T18:45:19.655Z,100044.13
2023-08-11T18:47:48.286Z,100044.13
2023-08-11T18:50:17.007Z,100042.41
2023-08-11T18:52:45.128Z,100056.72
2023-08-11T18:55:13.459Z,100054.72
2023-08-11T18:57:43.594Z,100065.88
2023-08-11T19:00:14.375Z,100063.16
2023-08-11T19:02:43.637Z,100067.88
2023-08-11T19:05:12.497Z,75815.66
2023-08-11T19:07:41.019Z,62174.59
2023-08-11T19:10:09.766Z,62174.59
2023-08-11T19:12:38.710Z,62174.59
2023-08-11T19:15:07.872Z,62174.59
2023-08-11T19:17:37.894Z,62174.59
2023-08-11T19:20:09.333Z,62174.59
2023-08-11T19:22:37.847Z,62174.59
2023-08-11T19:25:08.983Z,62174.59
2023-08-11T19:27:38.624Z,62174.59
2023-08-11T19:30:08.527Z,62174.59
2023-08-11T19:32:37.077Z,62174.59
2023-08-11T19:35:07.499Z,62174.59
2023-08-11T19:37:36.813Z,62174.59
2023-08-11T19:40:07.179Z,62174.59
2023-08-11T19:42:36.033Z,62174.59
2023-08-11T19:45:05.446Z,100074.41
2023-08-11T19:47:34.142Z,62174.59
2023-08-11T19:50:02.544Z,62174.59
2023-08-11T19:52:31.962Z,62174.59
2023-08-11T19:55:00.460Z,62174.59
2023-08-11T19:57:28.758Z,62174.59
2023-08-11T19:59:57.129Z,62174.59
2023-08-11T20:02:26.865Z,62174.59
2023-08-11T20:04:55.189Z,62174.59
2023-08-11T20:07:23.635Z,62174.59
2023-08-11T20:09:51.890Z,62174.59
2023-08-11T20:12:21.003Z,62174.59
2023-08-11T20:14:49.267Z,62174.59
2023-08-11T20:17:17.768Z,62174.59
2023-08-11T20:19:46.827Z,62174.59
2023-08-11T20:22:15.316Z,62174.59
2023-08-11T20:24:44.134Z,62174.59
2023-08-11T20:27:12.678Z,62174.59
2023-08-11T20:29:41.347Z,62174.59
2023-08-11T20:32:10.015Z,62174.59
2023-08-11T20:34:38.659Z,62174.59
2023-08-11T20:37:07.186Z,62174.59
2023-08-11T20:39:35.971Z,62174.59
2023-08-11T20:42:05.132Z,62174.59
2023-08-11T20:44:33.651Z,100055.91
2023-08-11T20:47:02.949Z,100061.44
2023-08-11T20:49:31.428Z,62174.59
2023-08-11T20:52:02.067Z,62174.59
2023-08-11T20:54:30.671Z,62174.59
2023-08-11T20:57:01.989Z,62174.59
2023-08-11T20:59:31.777Z,62174.59
2023-08-11T21:02:00.401Z,62174.59
2023-08-11T21:04:29.332Z,62174.59
2023-08-11T21:06:57.868Z,62174.59
2023-08-11T21:09:26.496Z,62174.59
2023-08-11T21:11:59.224Z,62174.59
2023-08-11T21:14:28.407Z,62174.59
2023-08-11T21:16:57.911Z,62174.59
2023-08-11T21:19:30.078Z,62174.59
2023-08-11T21:21:58.280Z,62174.59
2023-08-11T21:24:29.587Z,62174.59
2023-08-11T21:26:57.960Z,62174.59
2023-08-11T21:29:26.710Z,62174.59
2023-08-11T21:31:54.982Z,62174.59
2023-08-11T21:34:23.256Z,62174.59
2023-08-11T21:36:51.665Z,62174.59
2023-08-11T21:39:20.833Z,62174.59
2023-08-11T21:41:49.275Z,62174.59
2023-08-11T21:44:19.379Z,62174.59
2023-08-11T21:46:48.135Z,62174.59
2023-08-11T21:49:16.634Z,62174.59
2023-08-11T21:51:44.927Z,62174.59
2023-08-11T21:54:13.303Z,62174.59
2023-08-11T21:56:41.750Z,62174.59
2023-08-11T21:59:10.081Z,62174.59
2023-08-11T22:01:38.753Z,62174.59
2023-08-11T22:04:07.418Z,62174.59
2023-08-11T22:06:36.578Z,62174.59
2023-08-11T22:09:05.662Z,62174.59
2023-08-11T22:11:37.065Z,62174.59
2023-08-11T22:14:06.709Z,62174.59
2023-08-11T22:16:35.387Z,62174.59
2023-08-11T22:19:03.967Z,62174.59
2023-08-11T22:21:32.296Z,62174.59
2023-08-11T22:24:00.865Z,62174.59
2023-08-11T22:26:29.392Z,100060.22
2023-08-11T22:28:58.105Z,100062.63
2023-08-11T22:31:26.572Z,100057.75
2023-08-11T22:33:54.928Z,100060.56
2023-08-11T22:36:23.660Z,100067.88
2023-08-11T22:38:51.763Z,100057.25
2023-08-11T22:41:19.879Z,100050.25
2023-08-11T22:43:48.099Z,100049.56
2023-08-11T22:46:16.319Z,100050.91
2023-08-11T22:48:44.530Z,62174.59
2023-08-11T22:51:12.601Z,62174.59
2023-08-11T22:53:40.872Z,62174.59
2023-08-11T22:56:09.192Z,62174.59
2023-08-11T22:58:37.457Z,62174.59
2023-08-11T23:01:05.999Z,62174.59
2023-08-11T23:03:34.203Z,62174.59
2023-08-11T23:06:02.797Z,62174.59
2023-08-11T23:08:31.421Z,62174.59
2023-08-11T23:10:59.552Z,62174.59
2023-08-11T23:13:27.680Z,62174.59
2023-08-11T23:15:56.031Z,62174.59
2023-08-11T23:18:24.462Z,62174.59
2023-08-11T23:20:52.583Z,62174.59
2023-08-11T23:23:21.113Z,62174.59
2023-08-11T23:25:49.738Z,62174.59
2023-08-11T23:28:18.631Z,62174.59
2023-08-11T23:30:46.858Z,62174.59
2023-08-11T23:33:16.519Z,62174.59
2023-08-11T23:35:45.283Z,62174.59
2023-08-11T23:38:13.739Z,62174.59
2023-08-11T23:40:42.071Z,62174.59
2023-08-11T23:43:10.172Z,62174.59
2023-08-11T23:45:38.488Z,62174.59
2023-08-11T23:48:08.549Z,62174.59
2023-08-11T23:50:37.248Z,62174.59
2023-08-11T23:53:05.698Z,62174.59
2023-08-11T23:55:34.112Z,62174.59
2023-08-11T23:58:02.196Z,62174.59
